createdAt,value
2023-01-17T00:04:43.103Z,5.91
2023-01-17T00:09:53.800Z,5.88
2023-01-17T00:14:56.646Z,5.91
2023-01-17T00:20:19.320Z,5.93
2023-01-17T00:25:45.699Z,5.88
2023-01-17T00:30:47.278Z,5.94
2023-01-17T00:35:49.273Z,5.82
2023-01-17T00:40:50.918Z,5.78
2023-01-17T00:46:11.847Z,5.67
2023-01-17T00:51:31.838Z,5.85
2023-01-17T00:56:51.998Z,5.78
2023-01-17T01:02:12.063Z,5.86
2023-01-17T01:07:32.325Z,5.91
2023-01-17T01:12:52.589Z,5.76
2023-01-17T01:18:12.553Z,5.82
2023-01-17T01:23:32.704Z,5.76
2023-01-17T01:28:52.778Z,6.11
2023-01-17T01:33:54.512Z,6.11
2023-01-17T01:38:56.819Z,6.27
2023-01-17T01:43:58.470Z,6.33
2023-01-17T01:49:05.940Z,6.28
2023-01-17T01:54:15.518Z,6.42
2023-01-17T01:59:20.160Z,6.38
2023-01-17T02:04:22.455Z,6.43
2023-01-17T02:09:24.396Z,6.50
2023-01-17T02:14:26.009Z,6.54
2023-01-17T02:19:52.978Z,6.63
2023-01-17T02:25:10.991Z,6.74
2023-01-17T02:30:27.608Z,6.74
2023-01-17T02:35:40.386Z,6.73
2023-01-17T02:40:48.481Z,6.65
2023-01-17T02:45:50.480Z,6.71
2023-01-17T02:51:10.351Z,6.87
2023-01-17T02:56:32.485Z,6.92
2023-01-17T03:02:04.395Z,6.77
2023-01-17T03:07:11.586Z,6.80
2023-01-17T03:12:13.626Z,6.95
2023-01-17T03:17:15.230Z,6.93
2023-01-17T03:22:17.951Z,6.95
2023-01-17T03:27:19.542Z,6.77
2023-01-17T03:32:21.197Z,6.92
2023-01-17T03:37:22.992Z,6.82
2023-01-17T03:42:24.542Z,7.01
2023-01-17T03:47:26.210Z,7.16
2023-01-17T03:52:27.854Z,6.97
2023-01-17T03:57:29.589Z,6.92
2023-01-17T04:02:31.195Z,6.93
2023-01-17T04:07:32.781Z,6.84
2023-01-17T04:12:34.361Z,6.85
2023-01-17T04:17:35.986Z,6.90
2023-01-17T04:22:37.730Z,6.80
2023-01-17T04:27:39.314Z,6.69
2023-01-17T04:32:40.889Z,6.66
2023-01-17T04:37:42.536Z,6.78
2023-01-17T04:42:47.864Z,6.70
2023-01-17T04:47:49.428Z,6.70
2023-01-17T04:52:50.983Z,6.72
2023-01-17T04:57:52.704Z,6.66
2023-01-17T05:02:54.377Z,6.69
2023-01-17T05:07:56.709Z,6.52
2023-01-17T05:12:59.354Z,6.71
2023-01-17T05:18:00.917Z,6.66
2023-01-17T05:23:02.606Z,6.70
2023-01-17T05:28:04.585Z,6.76
2023-01-17T05:33:06.274Z,6.75
2023-01-17T05:38:07.909Z,6.78
2023-01-17T05:43:09.623Z,6.81
2023-01-17T05:48:11.199Z,6.77
2023-01-17T05:53:14.394Z,6.73
2023-01-17T05:58:18.277Z,6.63
2023-01-17T06:03:19.941Z,6.78
2023-01-17T06:08:23.405Z,6.75
2023-01-17T06:13:25.010Z,6.81
2023-01-17T06:18:26.639Z,6.54
2023-01-17T06:23:28.426Z,6.67
2023-01-17T06:28:30.294Z,6.72
2023-01-17T06:33:31.890Z,6.73
2023-01-17T06:38:33.534Z,6.61
2023-01-17T06:43:35.308Z,6.61
2023-01-17T06:48:36.887Z,6.37
2023-01-17T06:53:38.687Z,6.46
2023-01-17T06:58:40.308Z,6.45
2023-01-17T07:03:42.125Z,6.61
2023-01-17T07:08:43.691Z,6.68
2023-01-17T07:13:45.370Z,6.53
2023-01-17T07:18:47.019Z,6.51
2023-01-17T07:23:48.906Z,6.57
2023-01-17T07:28:50.472Z,6.43
2023-01-17T07:33:52.037Z,6.34
2023-01-17T07:38:53.840Z,6.34
2023-01-17T07:43:56.408Z,6.07
2023-01-17T07:48:58.049Z,6.15
2023-01-17T07:53:59.608Z,6.20
2023-01-17T07:59:01.415Z,6.13
2023-01-17T08:04:03.081Z,6.12
2023-01-17T08:09:04.703Z,6.25
2023-01-17T08:14:06.305Z,6.17
2023-01-17T08:19:07.867Z,6.24
2023-01-17T08:24:15.588Z,6.08
2023-01-17T08:29:18.052Z,6.30
2023-01-17T08:34:19.771Z,6.49
2023-01-17T08:39:21.808Z,6.52
2023-01-17T08:44:23.472Z,6.08
2023-01-17T08:49:25.727Z,6.07
2023-01-17T08:54:27.299Z,5.94
2023-01-17T08:59:28.841Z,6.01
2023-01-17T09:04:30.710Z,6.05
2023-01-17T09:09:32.465Z,6.13
2023-01-17T09:14:34.836Z,6.43
2023-01-17T09:19:38.899Z,6.31
2023-01-17T09:24:40.491Z,6.53
2023-01-17T09:29:42.070Z,6.45
2023-01-17T09:34:44.309Z,6.64
2023-01-17T09:39:46.507Z,6.34
2023-01-17T09:44:51.611Z,7.05
2023-01-17T09:49:57.753Z,6.74
2023-01-17T09:54:59.494Z,6.76
2023-01-17T10:00:34.141Z,7.08
2023-01-17T10:06:09.608Z,7.20
2023-01-17T10:11:23.017Z,6.87
2023-01-17T10:16:28.004Z,7.19
2023-01-17T10:21:59.160Z,7.19
2023-01-17T10:27:01.907Z,7.28
2023-01-17T10:32:03.527Z,7.05
2023-01-17T10:37:18.089Z,6.81
2023-01-17T10:42:25.992Z,7.07
2023-01-17T10:47:29.841Z,7.21
2023-01-17T10:52:52.799Z,7.06
2023-01-17T10:57:55.275Z,7.09
2023-01-17T11:02:57.197Z,6.97
2023-01-17T11:08:04.261Z,7.22
2023-01-17T11:13:37.964Z,7.04
2023-01-17T11:18:39.995Z,6.90
2023-01-17T11:23:44.206Z,7.32
2023-01-17T11:28:45.754Z,6.41
2023-01-17T11:33:53.885Z,6.99
2023-01-17T11:39:04.503Z,6.93
2023-01-17T11:44:30.409Z,7.28
2023-01-17T11:49:32.001Z,6.82
2023-01-17T11:54:39.192Z,6.70
2023-01-17T11:59:44.919Z,7.09
2023-01-17T12:05:10.248Z,7.36
2023-01-17T12:10:21.284Z,7.21
2023-01-17T12:15:41.223Z,7.33
2023-01-17T12:20:51.945Z,7.47
2023-01-17T12:26:30.916Z,7.47
2023-01-17T12:32:01.814Z,7.48
2023-01-17T12:37:29.540Z,7.40
2023-01-17T12:42:37.080Z,6.98
2023-01-17T12:47:44.659Z,6.82
2023-01-17T12:52:59.100Z,6.99
2023-01-17T12:58:02.531Z,7.11
2023-01-17T13:03:11.954Z,7.06
2023-01-17T13:08:18.002Z,6.86
2023-01-17T13:13:25.916Z,7.08
2023-01-17T13:18:29.779Z,7.10
2023-01-17T13:23:42.878Z,7.02
2023-01-17T13:29:13.783Z,7.00
2023-01-17T13:34:33.342Z,6.75
2023-01-17T13:39:34.849Z,7.00
2023-01-17T13:44:37.414Z,6.99
2023-01-17T13:49:38.918Z,6.99
2023-01-17T13:55:03.355Z,7.03
2023-01-17T14:00:21.652Z,6.90
2023-01-17T14:05:38.531Z,6.74
2023-01-17T14:10:47.975Z,6.56
2023-01-17T14:15:50.446Z,6.79
2023-01-17T14:21:12.052Z,6.66
2023-01-17T14:26:23.443Z,6.60
2023-01-17T14:31:25.261Z,6.71
2023-01-17T14:36:32.784Z,6.65
2023-01-17T14:41:34.415Z,6.49
2023-01-17T14:46:36.195Z,6.68
2023-01-17T14:51:38.956Z,6.50
2023-01-17T14:56:40.586Z,6.28
2023-01-17T15:02:06.256Z,6.24
2023-01-17T15:07:15.217Z,6.19
2023-01-17T15:12:17.037Z,6.24
2023-01-17T15:17:26.049Z,6.14
2023-01-17T15:22:29.729Z,6.08
2023-01-17T15:27:31.991Z,6.16
2023-01-17T15:32:33.840Z,6.07
2023-01-17T15:37:36.994Z,6.00
2023-01-17T15:42:39.036Z,6.14
2023-01-17T15:47:40.721Z,6.18
2023-01-17T15:52:50.270Z,6.08
2023-01-17T15:57:52.143Z,6.10
2023-01-17T16:02:58.895Z,6.00
2023-01-17T16:08:04.186Z,6.03
2023-01-17T16:13:07.517Z,6.14
2023-01-17T16:18:17.988Z,6.20
2023-01-17T16:23:19.563Z,6.01
2023-01-17T16:28:21.161Z,5.99
2023-01-17T16:33:22.810Z,5.85
2023-01-17T16:38:24.429Z,5.87
2023-01-17T16:43:26.083Z,5.86
2023-01-17T16:48:27.731Z,5.57
2023-01-17T16:53:29.325Z,5.46
2023-01-17T16:58:30.895Z,5.70
2023-01-17T17:03:32.491Z,5.50
2023-01-17T17:08:36.021Z,5.51
2023-01-17T17:13:37.613Z,5.24
2023-01-17T17:18:39.565Z,5.22
2023-01-17T17:23:41.440Z,5.13
2023-01-17T17:28:43.110Z,5.05
2023-01-17T17:33:44.725Z,4.97
2023-01-17T17:38:53.012Z,4.94
2023-01-17T17:43:55.290Z,4.88
2023-01-17T17:48:57.842Z,4.86
2023-01-17T17:54:02.042Z,4.63
2023-01-17T17:59:05.347Z,4.52
2023-01-17T18:04:07.822Z,4.54
2023-01-17T18:09:10.917Z,4.45
2023-01-17T18:14:15.641Z,4.56
2023-01-17T18:19:22.250Z,4.28
2023-01-17T18:24:24.771Z,4.29
2023-01-17T18:29:27.861Z,4.07
2023-01-17T18:34:29.626Z,4.03
2023-01-17T18:39:31.390Z,3.99
2023-01-17T18:44:33.047Z,3.93
2023-01-17T18:49:34.998Z,3.91
2023-01-17T18:54:36.671Z,3.70
2023-01-17T18:59:38.237Z,3.82
2023-01-17T19:04:39.864Z,3.76
2023-01-17T19:09:41.495Z,3.73
2023-01-17T19:14:43.146Z,3.62
2023-01-17T19:19:45.276Z,3.73
2023-01-17T19:24:46.994Z,3.61
2023-01-17T19:29:48.958Z,3.45
2023-01-17T19:34:50.561Z,3.48
2023-01-17T19:39:52.127Z,3.47
2023-01-17T19:44:53.663Z,3.47
2023-01-17T19:49:55.210Z,3.40
2023-01-17T19:54:56.835Z,3.38
2023-01-17T19:59:58.403Z,3.35
2023-01-17T20:05:00.243Z,3.38
2023-01-17T20:10:01.977Z,3.01
2023-01-17T20:15:04.846Z,3.17
2023-01-17T20:20:07.453Z,3.17
2023-01-17T20:25:10.047Z,3.13
2023-01-17T20:30:20.269Z,3.02
2023-01-17T20:35:22.721Z,2.91
2023-01-17T20:40:24.304Z,3.09
2023-01-17T20:45:25.885Z,3.04
2023-01-17T20:50:27.548Z,3.06
2023-01-17T20:55:34.192Z,2.98
2023-01-17T21:00:37.865Z,2.91
2023-01-17T21:05:39.506Z,2.86
2023-01-17T21:10:48.266Z,2.81
2023-01-17T21:15:50.829Z,2.90
2023-01-17T21:20:52.557Z,2.82
2023-01-17T21:25:56.125Z,2.89
2023-01-17T21:30:58.178Z,2.88
2023-01-17T21:36:08.402Z,2.92
2023-01-17T21:41:10.047Z,2.99
2023-01-17T21:46:11.702Z,2.82
2023-01-17T21:51:13.496Z,2.94
2023-01-17T21:56:35.586Z,2.84
2023-01-17T22:01:37.299Z,2.88
2023-01-17T22:06:39.347Z,2.90
2023-01-17T22:11:40.908Z,2.89
2023-01-17T22:16:42.539Z,2.86
2023-01-17T22:21:44.073Z,2.82
2023-01-17T22:26:45.658Z,2.85
2023-01-17T22:31:47.842Z,2.65
2023-01-17T22:36:49.955Z,2.65
2023-01-17T22:41:51.792Z,2.69
2023-01-17T22:46:53.446Z,2.75
2023-01-17T22:51:55.272Z,2.90
2023-01-17T22:56:56.887Z,2.88
2023-01-17T23:01:59.483Z,2.97
2023-01-17T23:07:01.412Z,2.74
2023-01-17T23:12:03.063Z,2.84
2023-01-17T23:17:23.511Z,2.96
2023-01-17T23:22:27.071Z,2.89
2023-01-17T23:27:53.052Z,2.85
2023-01-17T23:32:55.010Z,2.84
2023-01-17T23:38:15.543Z,2.91
2023-01-17T23:43:22.826Z,2.98
2023-01-17T23:48:27.815Z,2.75
2023-01-17T23:53:29.372Z,2.92
2023-01-17T23:58:30.931Z,2.92
